Time;durP1;ratioP1;P1;durP2;ratioP2;P2;SDS_P1;SDS_P2;PMS_P1;PMS_P2;Temp;Humidity;BMP_temperature;BMP_pressure;BME280_temperature;BME280_humidity;BME280_pressure;Samples;Min_cycle;Max_cycle;Signal;HPM_P1;HPM_P2
2023/11/12 00:01:28;;;;;;;5.55;1.90;;;;;;;;;;4911612;29;20039;-82
2023/11/12 00:04:14;;;;;;;4.30;2.00;;;;;;;;;;4898823;29;20032;-83
2023/11/12 00:06:59;;;;;;;3.47;2.03;;;;;;;;;;4911608;29;20071;-82
2023/11/12 00:09:44;;;;;;;2.92;2.13;;;;;;;;;;4893616;29;20156;-82
2023/11/12 00:12:31;;;;;;;5.03;2.30;;;;;;;;;;4895677;29;20051;-82
2023/11/12 00:15:16;;;;;;;5.97;2.25;;;;;;;;;;4909793;29;20035;-82
2023/11/12 00:18:02;;;;;;;3.53;2.42;;;;;;;;;;4906579;29;20032;-82
2023/11/12 00:20:47;;;;;;;3.03;1.88;;;;;;;;;;4892751;29;20072;-82
2023/11/12 00:23:36;;;;;;;3.47;2.05;;;;;;;;;;4904208;29;20050;-82
2023/11/12 00:26:22;;;;;;;3.88;2.33;;;;;;;;;;4907262;29;20036;-83
2023/11/12 00:29:07;;;;;;;5.25;2.58;;;;;;;;;;4911242;29;20384;-83
2023/11/12 00:31:52;;;;;;;7.30;1.80;;;;;;;;;;4915814;29;20539;-83
2023/11/12 00:34:38;;;;;;;3.50;1.92;;;;;;;;;;4899642;29;20103;-83
2023/11/12 00:37:23;;;;;;;2.28;1.60;;;;;;;;;;4910692;29;20032;-83
2023/11/12 00:40:10;;;;;;;3.38;2.20;;;;;;;;;;4912750;29;20242;-83
2023/11/12 00:42:58;;;;;;;6.28;1.90;;;;;;;;;;4898528;29;20032;-82
2023/11/12 00:45:43;;;;;;;2.92;2.00;;;;;;;;;;4903911;29;20786;-83
2023/11/12 00:48:28;;;;;;;6.10;2.78;;;;;;;;;;4907567;29;20024;-83
2023/11/12 00:51:14;;;;;;;3.92;1.77;;;;;;;;;;4912414;29;20048;-83
2023/11/12 00:53:59;;;;;;;2.70;1.98;;;;;;;;;;4918231;29;20376;-83
2023/11/12 00:56:44;;;;;;;2.85;1.73;;;;;;;;;;4911439;29;20028;-83
2023/11/12 00:59:30;;;;;;;3.20;1.90;;;;;;;;;;4910190;29;20055;-83
2023/11/12 01:02:16;;;;;;;2.60;1.80;;;;;;;;;;4910272;29;20028;-82
2023/11/12 01:05:01;;;;;;;5.20;2.70;;;;;;;;;;4892794;29;20040;-82
2023/11/12 01:07:47;;;;;;;7.57;2.35;;;;;;;;;;4905401;29;20036;-82
2023/11/12 01:10:35;;;;;;;4.43;2.33;;;;;;;;;;4910974;29;20039;-82
2023/11/12 01:13:21;;;;;;;5.32;1.95;;;;;;;;;;4910960;29;20051;-82
2023/11/12 01:16:06;;;;;;;3.17;1.83;;;;;;;;;;4911612;29;20070;-82
2023/11/12 01:18:51;;;;;;;3.80;2.03;;;;;;;;;;4899921;29;20571;-82
2023/11/12 01:21:37;;;;;;;5.18;2.47;;;;;;;;;;4892438;29;20387;-82
2023/11/12 01:24:22;;;;;;;3.92;1.75;;;;;;;;;;4901486;29;20507;-82
2023/11/12 01:27:07;;;;;;;3.20;1.50;;;;;;;;;;4891220;29;20059;-82
2023/11/12 01:29:52;;;;;;;2.47;1.55;;;;;;;;;;4908160;29;20035;-83
2023/11/12 01:32:38;;;;;;;2.60;1.70;;;;;;;;;;4906350;29;20023;-83
2023/11/12 01:35:23;;;;;;;2.97;1.52;;;;;;;;;;4905440;29;20124;-83
2023/11/12 01:38:08;;;;;;;3.13;1.90;;;;;;;;;;4907919;29;20030;-82
2023/11/12 01:40:54;;;;;;;2.38;1.92;;;;;;;;;;4897306;29;20031;-83
2023/11/12 01:43:41;;;;;;;2.88;1.52;;;;;;;;;;4910101;29;20036;-82
2023/11/12 01:46:26;;;;;;;11.43;4.18;;;;;;;;;;4909995;29;20043;-82
2023/11/12 01:49:12;;;;;;;2.03;1.50;;;;;;;;;;4908566;29;20029;-81
2023/11/12 01:51:57;;;;;;;3.50;1.58;;;;;;;;;;4910296;29;20032;-81
2023/11/12 01:54:43;;;;;;;2.95;1.67;;;;;;;;;;4909509;29;20471;-81
2023/11/12 01:57:28;;;;;;;2.38;1.40;;;;;;;;;;4909741;29;20086;-81
2023/11/12 02:00:16;;;;;;;2.30;1.60;;;;;;;;;;4909095;29;20071;-82
2023/11/12 02:03:03;;;;;;;2.70;1.60;;;;;;;;;;4908959;29;20059;-81
2023/11/12 02:05:48;;;;;;;7.57;2.58;;;;;;;;;;4910210;29;20175;-82
2023/11/12 02:08:35;;;;;;;3.58;1.95;;;;;;;;;;4908374;29;20122;-82
2023/11/12 02:11:22;;;;;;;2.05;1.75;;;;;;;;;;4890663;29;20028;-83
2023/11/12 02:14:07;;;;;;;3.38;1.63;;;;;;;;;;4899745;29;20060;-83
2023/11/12 02:16:52;;;;;;;3.10;1.60;;;;;;;;;;4910014;29;20032;-83
2023/11/12 02:19:41;;;;;;;3.03;1.65;;;;;;;;;;4909224;29;20036;-83
2023/11/12 02:22:26;;;;;;;2.33;1.63;;;;;;;;;;4909267;29;20031;-82
2023/11/12 02:25:13;;;;;;;6.13;1.70;;;;;;;;;;4909291;29;20032;-82
2023/11/12 02:27:58;;;;;;;2.63;1.50;;;;;;;;;;4908867;29;20032;-83
2023/11/12 02:30:43;;;;;;;4.28;1.73;;;;;;;;;;4890813;29;20383;-82
2023/11/12 02:33:30;;;;;;;3.13;1.33;;;;;;;;;;4894452;29;20306;-83
2023/11/12 02:36:17;;;;;;;2.97;1.38;;;;;;;;;;4909556;29;20063;-84
2023/11/12 02:39:02;;;;;;;4.22;1.40;;;;;;;;;;4909177;29;20032;-82
2023/11/12 02:41:48;;;;;;;1.83;1.30;;;;;;;;;;4908328;29;20756;-82
2023/11/12 02:44:34;;;;;;;3.33;1.15;;;;;;;;;;4895313;29;20247;-83
2023/11/12 02:47:21;;;;;;;2.55;1.20;;;;;;;;;;4903944;29;20028;-84
2023/11/12 02:50:15;;;;;;;3.22;1.73;;;;;;;;;;4905944;29;20400;-84
2023/11/12 02:53:01;;;;;;;3.35;1.85;;;;;;;;;;4896504;29;20427;-83
2023/11/12 02:55:46;;;;;;;3.20;1.80;;;;;;;;;;4908321;29;20111;-82
2023/11/12 02:58:32;;;;;;;2.60;1.70;;;;;;;;;;4908874;29;20044;-82
2023/11/12 03:01:19;;;;;;;2.67;1.42;;;;;;;;;;4910581;29;20032;-83
2023/11/12 03:04:05;;;;;;;2.92;1.40;;;;;;;;;;4909261;29;20036;-81
2023/11/12 03:06:50;;;;;;;4.60;1.55;;;;;;;;;;4912252;29;20131;-81
2023/11/12 03:09:35;;;;;;;5.38;1.60;;;;;;;;;;4911589;29;20415;-81
2023/11/12 03:12:21;;;;;;;4.55;1.48;;;;;;;;;;4912181;29;20036;-81
2023/11/12 03:15:09;;;;;;;3.13;1.30;;;;;;;;;;4911887;29;20510;-81
2023/11/12 03:17:55;;;;;;;2.67;1.25;;;;;;;;;;4897252;29;20384;-82
2023/11/12 03:20:40;;;;;;;1.77;1.35;;;;;;;;;;4903512;29;20499;-81
2023/11/12 03:23:25;;;;;;;1.38;1.02;;;;;;;;;;4893435;29;20622;-81
2023/11/12 03:26:10;;;;;;;2.95;1.40;;;;;;;;;;4910014;29;20028;-81
2023/11/12 03:28:56;;;;;;;4.15;1.52;;;;;;;;;;4924639;29;20392;-81
2023/11/12 03:31:41;;;;;;;1.90;0.93;;;;;;;;;;4899111;29;20025;-82
2023/11/12 03:34:27;;;;;;;2.47;1.08;;;;;;;;;;4910623;29;20043;-82
2023/11/12 03:37:12;;;;;;;2.88;1.77;;;;;;;;;;4911974;29;20075;-82
2023/11/12 03:39:57;;;;;;;3.03;1.25;;;;;;;;;;4911541;29;20024;-81
2023/11/12 03:42:43;;;;;;;2.78;1.40;;;;;;;;;;4911742;29;20025;-81
2023/11/12 03:45:44;;;;;;;1.20;1.10;;;;;;;;;;4911124;29;20112;-83
2023/11/12 03:48:29;;;;;;;1.48;1.30;;;;;;;;;;4911919;29;20024;-82
2023/11/12 03:51:15;;;;;;;2.70;1.58;;;;;;;;;;4911292;29;20052;-82
2023/11/12 03:54:01;;;;;;;2.90;1.70;;;;;;;;;;4911616;29;20028;-81
2023/11/12 03:56:47;;;;;;;4.18;1.88;;;;;;;;;;4911220;29;20092;-81
2023/11/12 03:59:34;;;;;;;2.00;1.10;;;;;;;;;;4910944;29;20028;-82
2023/11/12 04:02:20;;;;;;;2.42;1.10;;;;;;;;;;4912287;29;20124;-82
2023/11/12 04:05:06;;;;;;;2.45;1.10;;;;;;;;;;4911683;29;20062;-82
2023/11/12 04:07:51;;;;;;;3.35;1.25;;;;;;;;;;4912273;29;20036;-82
2023/11/12 04:10:37;;;;;;;1.83;1.08;;;;;;;;;;4911750;29;20043;-82
2023/11/12 04:13:31;;;;;;;1.50;1.05;;;;;;;;;;4912117;29;20043;-83
2023/11/12 04:16:16;;;;;;;5.00;1.20;;;;;;;;;;4911067;29;20071;-83
2023/11/12 04:19:05;;;;;;;1.00;0.88;;;;;;;;;;4911905;29;20032;-83
2023/11/12 04:21:50;;;;;;;2.97;1.55;;;;;;;;;;4911406;29;20042;-83
2023/11/12 04:24:35;;;;;;;1.02;0.88;;;;;;;;;;4911318;29;20039;-82
2023/11/12 04:27:21;;;;;;;5.85;1.60;;;;;;;;;;4911267;29;20119;-83
2023/11/12 04:30:07;;;;;;;1.85;1.20;;;;;;;;;;4910908;29;20038;-82
2023/11/12 04:32:52;;;;;;;2.30;1.60;;;;;;;;;;4911772;29;20048;-83
2023/11/12 04:35:39;;;;;;;3.28;1.33;;;;;;;;;;4909953;29;20562;-83
2023/11/12 04:38:25;;;;;;;3.10;1.15;;;;;;;;;;4892373;29;20048;-83
2023/11/12 04:41:11;;;;;;;3.15;1.40;;;;;;;;;;4911136;29;20058;-84
2023/11/12 04:43:57;;;;;;;2.35;1.17;;;;;;;;;;4910960;29;20570;-83
2023/11/12 04:46:43;;;;;;;1.55;1.00;;;;;;;;;;4907834;29;20035;-84
2023/11/12 04:49:29;;;;;;;3.00;1.80;;;;;;;;;;4910524;29;20060;-83
2023/11/12 04:52:14;;;;;;;1.55;1.13;;;;;;;;;;4910975;29;20062;-83
2023/11/12 04:55:00;;;;;;;2.33;1.60;;;;;;;;;;4910844;29;20031;-83
2023/11/12 04:57:45;;;;;;;3.40;1.65;;;;;;;;;;4911505;29;20031;-83
2023/11/12 05:00:30;;;;;;;1.15;1.00;;;;;;;;;;4897805;29;20028;-82
2023/11/12 05:03:16;;;;;;;3.22;1.35;;;;;;;;;;4909857;29;20024;-83
2023/11/12 05:06:01;;;;;;;2.25;1.10;;;;;;;;;;4909613;29;20067;-80
2023/11/12 05:08:46;;;;;;;4.55;1.40;;;;;;;;;;4910391;29;20139;-82
2023/11/12 05:11:32;;;;;;;3.45;1.50;;;;;;;;;;4910452;29;20028;-82
2023/11/12 05:14:17;;;;;;;2.03;1.60;;;;;;;;;;4909610;29;20020;-81
2023/11/12 05:17:02;;;;;;;2.00;1.55;;;;;;;;;;4910529;29;20395;-82
2023/11/12 05:19:48;;;;;;;5.30;2.03;;;;;;;;;;4910349;29;20502;-82
2023/11/12 05:22:33;;;;;;;5.70;1.92;;;;;;;;;;4909996;29;20036;-81
2023/11/12 05:25:20;;;;;;;3.28;1.70;;;;;;;;;;4910464;29;20284;-82
2023/11/12 05:28:05;;;;;;;4.80;2.08;;;;;;;;;;4909849;29;20024;-83
2023/11/12 05:30:51;;;;;;;3.65;1.92;;;;;;;;;;4910168;29;20036;-82
2023/11/12 05:33:36;;;;;;;2.50;2.00;;;;;;;;;;4901947;29;20028;-82
2023/11/12 05:36:21;;;;;;;3.47;1.95;;;;;;;;;;4909160;29;20016;-82
2023/11/12 05:39:06;;;;;;;2.72;1.73;;;;;;;;;;4898011;29;20032;-81
2023/11/12 05:41:51;;;;;;;5.03;1.80;;;;;;;;;;4892404;29;20040;-81
2023/11/12 05:44:37;;;;;;;4.95;1.90;;;;;;;;;;4891780;29;20100;-82
2023/11/12 05:47:22;;;;;;;4.90;2.33;;;;;;;;;;4904264;29;20535;-82
2023/11/12 05:50:08;;;;;;;5.45;2.33;;;;;;;;;;4896460;29;20044;-82
2023/11/12 05:52:53;;;;;;;3.35;2.20;;;;;;;;;;4909995;29;20604;-81
2023/11/12 05:55:38;;;;;;;2.97;2.20;;;;;;;;;;4917680;29;20115;-78
2023/11/12 05:58:23;;;;;;;4.75;2.20;;;;;;;;;;4917987;29;20032;-81
2023/11/12 06:01:08;;;;;;;2.92;1.70;;;;;;;;;;4917320;29;20097;-81
2023/11/12 06:03:54;;;;;;;4.28;1.65;;;;;;;;;;4913700;29;20524;-81
2023/11/12 06:06:39;;;;;;;3.63;1.70;;;;;;;;;;4913454;29;20036;-81
2023/11/12 06:09:25;;;;;;;3.78;1.58;;;;;;;;;;4896496;29;20036;-81
2023/11/12 06:12:10;;;;;;;3.58;1.67;;;;;;;;;;4904631;29;20039;-82
2023/11/12 06:14:55;;;;;;;5.22;2.17;;;;;;;;;;4906872;29;20100;-84
2023/11/12 06:17:41;;;;;;;2.95;1.80;;;;;;;;;;4910481;29;20190;-82
2023/11/12 06:20:28;;;;;;;3.70;2.63;;;;;;;;;;4910287;29;20043;-83
2023/11/12 06:23:13;;;;;;;3.05;1.90;;;;;;;;;;4909706;29;20032;-83
2023/11/12 06:25:58;;;;;;;5.10;2.15;;;;;;;;;;4895504;29;20039;-82
2023/11/12 06:28:44;;;;;;;2.92;1.80;;;;;;;;;;4909521;29;20035;-83
2023/11/12 06:31:30;;;;;;;3.97;2.00;;;;;;;;;;4890321;29;20100;-82
2023/11/12 06:34:15;;;;;;;4.63;1.80;;;;;;;;;;4893741;29;20115;-83
2023/11/12 06:37:01;;;;;;;3.75;2.10;;;;;;;;;;4909377;29;20051;-83
2023/11/12 06:39:46;;;;;;;4.03;2.20;;;;;;;;;;4890925;29;20097;-83
2023/11/12 06:42:34;;;;;;;6.35;2.38;;;;;;;;;;4890612;29;20087;-83
2023/11/12 06:45:19;;;;;;;2.55;1.90;;;;;;;;;;4885103;29;20031;-84
2023/11/12 06:48:05;;;;;;;2.97;1.98;;;;;;;;;;4902320;29;20075;-82
2023/11/12 06:50:50;;;;;;;2.38;1.60;;;;;;;;;;4912811;29;20044;-82
2023/11/12 06:53:35;;;;;;;2.90;1.58;;;;;;;;;;4895350;29;20119;-81
2023/11/12 06:56:23;;;;;;;2.05;1.77;;;;;;;;;;4908948;29;20479;-81
2023/11/12 06:59:08;;;;;;;2.75;1.60;;;;;;;;;;4908883;29;20088;-82
2023/11/12 07:01:54;;;;;;;8.30;2.05;;;;;;;;;;4908880;29;20040;-81
2023/11/12 07:04:39;;;;;;;4.22;1.95;;;;;;;;;;4909624;29;20040;-81
2023/11/12 07:07:25;;;;;;;4.15;1.83;;;;;;;;;;4903702;29;20051;-81
2023/11/12 07:10:12;;;;;;;4.85;2.08;;;;;;;;;;4900747;29;20027;-82
2023/11/12 07:12:59;;;;;;;3.75;1.40;;;;;;;;;;4906404;29;20487;-82
2023/11/12 07:15:44;;;;;;;4.22;2.00;;;;;;;;;;4904836;29;20036;-82
2023/11/12 07:18:29;;;;;;;4.50;2.33;;;;;;;;;;4908435;29;20031;-82
2023/11/12 07:21:22;;;;;;;4.30;2.00;;;;;;;;;;4908754;29;20436;-82
2023/11/12 07:24:08;;;;;;;2.67;1.67;;;;;;;;;;4901956;29;20030;-82
2023/11/12 07:26:53;;;;;;;5.88;2.40;;;;;;;;;;4910887;29;20039;-82
2023/11/12 07:29:38;;;;;;;4.43;1.98;;;;;;;;;;4901280;29;20044;-81
2023/11/12 07:32:24;;;;;;;2.17;1.98;;;;;;;;;;4908147;29;20032;-82
2023/11/12 07:35:09;;;;;;;4.70;1.90;;;;;;;;;;4909474;29;20042;-82
2023/11/12 07:37:54;;;;;;;3.65;1.85;;;;;;;;;;4908997;29;20036;-83
2023/11/12 07:40:41;;;;;;;4.15;1.85;;;;;;;;;;4924728;29;20028;-82
2023/11/12 07:43:26;;;;;;;3.30;1.50;;;;;;;;;;4920305;29;20075;-81
2023/11/12 07:46:12;;;;;;;3.75;1.90;;;;;;;;;;4909437;29;20048;-84
2023/11/12 07:48:57;;;;;;;2.92;1.55;;;;;;;;;;4903709;29;20020;-81
2023/11/12 07:51:42;;;;;;;4.38;1.73;;;;;;;;;;4909045;29;20068;-81
2023/11/12 07:54:27;;;;;;;2.40;1.60;;;;;;;;;;4909856;29;20463;-85
2023/11/12 07:57:13;;;;;;;3.80;2.03;;;;;;;;;;4908257;29;20036;-81
2023/11/12 08:00:01;;;;;;;2.90;2.00;;;;;;;;;;4912867;29;20095;-84
2023/11/12 08:02:47;;;;;;;2.92;1.73;;;;;;;;;;4912289;29;20111;-83
2023/11/12 08:05:32;;;;;;;6.15;2.13;;;;;;;;;;4909219;29;20024;-85
2023/11/12 08:08:17;;;;;;;3.80;1.83;;;;;;;;;;4909873;29;20036;-84
2023/11/12 08:11:03;;;;;;;4.63;2.40;;;;;;;;;;4899120;29;20020;-84
2023/11/12 08:13:49;;;;;;;4.68;1.92;;;;;;;;;;4912466;29;20020;-84
2023/11/12 08:16:34;;;;;;;3.90;1.60;;;;;;;;;;4912416;29;20040;-83
2023/11/12 08:19:21;;;;;;;4.07;1.88;;;;;;;;;;4911801;29;20038;-85
2023/11/12 08:22:06;;;;;;;4.03;1.70;;;;;;;;;;4907694;29;20043;-85
2023/11/12 08:24:53;;;;;;;4.63;2.00;;;;;;;;;;4911645;29;20044;-86
2023/11/12 08:27:39;;;;;;;5.93;2.70;;;;;;;;;;4912432;29;20115;-83
2023/11/12 08:30:24;;;;;;;6.63;3.05;;;;;;;;;;4909240;29;20031;-83
2023/11/12 08:33:09;;;;;;;4.97;2.35;;;;;;;;;;4908503;29;20669;-83
2023/11/12 08:35:54;;;;;;;8.25;2.78;;;;;;;;;;4910222;29;20036;-83
2023/11/12 08:38:40;;;;;;;3.05;2.38;;;;;;;;;;4908099;29;20028;-84
2023/11/12 08:41:25;;;;;;;6.80;2.45;;;;;;;;;;4907771;29;20028;-84
2023/11/12 08:44:10;;;;;;;5.57;2.33;;;;;;;;;;4911192;29;20024;-86
2023/11/12 08:46:56;;;;;;;5.47;2.42;;;;;;;;;;4898669;29;20180;-85
2023/11/12 08:49:41;;;;;;;7.78;2.78;;;;;;;;;;4910006;29;20078;-86
2023/11/12 08:52:26;;;;;;;5.00;2.67;;;;;;;;;;4908061;29;20032;-85
2023/11/12 08:55:11;;;;;;;9.55;2.67;;;;;;;;;;4910262;29;20087;-83
2023/11/12 08:57:57;;;;;;;4.13;2.20;;;;;;;;;;4909300;29;20036;-83
2023/11/12 09:00:42;;;;;;;5.88;2.28;;;;;;;;;;4911160;29;20062;-83
2023/11/12 09:03:27;;;;;;;4.70;2.40;;;;;;;;;;4909583;29;20043;-82
2023/11/12 09:06:12;;;;;;;7.18;2.55;;;;;;;;;;4911139;29;20043;-84
2023/11/12 09:08:58;;;;;;;4.35;2.60;;;;;;;;;;4914374;29;20043;-82
2023/11/12 09:11:43;;;;;;;5.30;2.50;;;;;;;;;;4897793;29;20032;-81
2023/11/12 09:14:29;;;;;;;7.55;2.55;;;;;;;;;;4900033;29;20111;-81
2023/11/12 09:17:14;;;;;;;5.80;2.95;;;;;;;;;;4902391;29;20493;-82
2023/11/12 09:19:59;;;;;;;5.05;2.30;;;;;;;;;;4911757;29;20020;-83
2023/11/12 09:22:45;;;;;;;5.15;2.85;;;;;;;;;;4912046;29;20068;-83
2023/11/12 09:25:30;;;;;;;5.88;2.72;;;;;;;;;;4911026;29;20236;-84
2023/11/12 09:28:15;;;;;;;5.03;2.50;;;;;;;;;;4908833;29;20092;-84
2023/11/12 09:31:00;;;;;;;5.43;3.60;;;;;;;;;;4906880;29;20031;-83
2023/11/12 09:33:49;;;;;;;4.88;2.83;;;;;;;;;;4911868;29;20049;-85
2023/11/12 09:36:34;;;;;;;3.92;2.13;;;;;;;;;;4903637;29;20461;-86
2023/11/12 09:39:22;;;;;;;4.65;2.65;;;;;;;;;;4908064;29;20032;-84
2023/11/12 09:42:09;;;;;;;3.00;1.92;;;;;;;;;;4911807;29;20044;-82
2023/11/12 09:44:55;;;;;;;2.45;2.00;;;;;;;;;;4906816;29;20031;-86
2023/11/12 09:47:40;;;;;;;2.78;2.22;;;;;;;;;;4906776;29;20032;-83
2023/11/12 09:50:26;;;;;;;3.95;2.55;;;;;;;;;;4910098;29;20513;-83
2023/11/12 09:53:12;;;;;;;4.85;2.50;;;;;;;;;;4910236;29;20044;-82
2023/11/12 09:55:58;;;;;;;5.88;2.72;;;;;;;;;;4909536;29;20040;-82
2023/11/12 09:58:45;;;;;;;2.90;2.13;;;;;;;;;;4891389;29;20067;-84
2023/11/12 10:01:31;;;;;;;4.45;2.55;;;;;;;;;;4897306;29;20111;-82
2023/11/12 10:04:16;;;;;;;5.82;2.83;;;;;;;;;;4909377;29;20047;-84
2023/11/12 10:07:05;;;;;;;4.78;2.70;;;;;;;;;;4904786;29;20028;-82
2023/11/12 10:09:54;;;;;;;5.45;2.97;;;;;;;;;;4903983;29;20024;-81
2023/11/12 10:12:45;;;;;;;4.53;3.00;;;;;;;;;;4892452;29;20172;-83
2023/11/12 10:15:33;;;;;;;3.58;2.45;;;;;;;;;;4896694;29;20156;-82
2023/11/12 10:18:26;;;;;;;4.45;3.05;;;;;;;;;;4902740;29;20542;-83
2023/11/12 10:21:12;;;;;;;5.28;2.72;;;;;;;;;;4904428;29;20032;-82
2023/11/12 10:24:04;;;;;;;6.88;2.10;;;;;;;;;;4904812;29;20040;-83
2023/11/12 10:26:49;;;;;;;5.47;2.30;;;;;;;;;;4907110;29;20052;-83
2023/11/12 10:29:34;;;;;;;4.75;2.53;;;;;;;;;;4900175;29;20044;-80
2023/11/12 10:32:25;;;;;;;4.20;2.88;;;;;;;;;;4902317;29;20456;-82
2023/11/12 10:35:10;;;;;;;4.38;2.30;;;;;;;;;;4906021;29;20075;-84
2023/11/12 10:37:56;;;;;;;4.32;2.10;;;;;;;;;;4901698;29;20028;-82
2023/11/12 10:40:57;;;;;;;8.23;2.80;;;;;;;;;;4905593;29;20020;-82
2023/11/12 10:43:55;;;;;;;4.18;1.95;;;;;;;;;;4905469;29;20096;-85
2023/11/12 10:46:43;;;;;;;6.13;1.92;;;;;;;;;;4898386;29;20054;-85
2023/11/12 10:49:31;;;;;;;7.10;2.38;;;;;;;;;;4907521;29;20076;-84
2023/11/12 10:52:16;;;;;;;3.95;1.95;;;;;;;;;;4885818;29;20470;-85
2023/11/12 10:55:05;;;;;;;6.43;2.53;;;;;;;;;;4875122;29;20036;-82
2023/11/12 10:57:50;;;;;;;4.15;1.92;;;;;;;;;;4873387;29;20091;-81
2023/11/12 11:00:36;;;;;;;5.22;2.25;;;;;;;;;;4876606;29;20141;-83
2023/11/12 11:03:33;;;;;;;5.53;2.33;;;;;;;;;;4873313;29;20036;-86
2023/11/12 11:06:18;;;;;;;4.97;2.20;;;;;;;;;;4873726;29;20076;-77
2023/11/12 11:09:05;;;;;;;4.95;2.05;;;;;;;;;;4871132;29;20435;-83
2023/11/12 11:11:51;;;;;;;3.88;2.00;;;;;;;;;;4877075;29;20132;-82
2023/11/12 11:14:37;;;;;;;6.05;2.17;;;;;;;;;;4877792;29;20112;-82
2023/11/12 11:17:35;;;;;;;3.90;1.77;;;;;;;;;;4880785;29;20040;-82
2023/11/12 11:20:20;;;;;;;2.15;1.83;;;;;;;;;;4878979;29;20020;-79
2023/11/12 11:23:26;;;;;;;3.88;1.90;;;;;;;;;;4877007;29;20508;-82
2023/11/12 11:26:26;;;;;;;5.00;2.20;;;;;;;;;;4878898;29;20488;-81
2023/11/12 11:29:30;;;;;;;3.30;2.13;;;;;;;;;;4878417;29;20115;-81
2023/11/12 11:32:17;;;;;;;6.10;2.33;;;;;;;;;;4878607;29;20044;-80
2023/11/12 11:35:16;;;;;;;6.18;2.42;;;;;;;;;;4860126;29;20032;-80
2023/11/12 11:38:08;;;;;;;3.80;1.95;;;;;;;;;;4877838;29;20088;-82
2023/11/12 11:40:57;;;;;;;4.28;2.70;;;;;;;;;;4879854;29;20507;-83
2023/11/12 11:43:43;;;;;;;3.55;2.17;;;;;;;;;;4879585;29;20170;-82
2023/11/12 11:46:28;;;;;;;3.88;1.90;;;;;;;;;;4880244;29;20483;-82
2023/11/12 11:49:13;;;;;;;5.32;2.30;;;;;;;;;;4879135;29;20037;-83
2023/11/12 11:52:00;;;;;;;5.00;2.78;;;;;;;;;;4909563;29;20087;-84
2023/11/12 11:54:45;;;;;;;2.60;1.83;;;;;;;;;;4893648;29;20056;-84
2023/11/12 11:57:34;;;;;;;3.97;2.03;;;;;;;;;;4912044;29;20271;-83
2023/11/12 12:00:19;;;;;;;4.07;2.20;;;;;;;;;;4896687;29;20135;-81
2023/11/12 12:03:15;;;;;;;3.38;1.98;;;;;;;;;;4910458;29;20032;-83
2023/11/12 12:06:13;;;;;;;4.43;1.90;;;;;;;;;;4909178;29;20541;-84
2023/11/12 12:08:58;;;;;;;6.32;2.40;;;;;;;;;;4915671;29;20067;-82
2023/11/12 12:11:47;;;;;;;3.88;2.38;;;;;;;;;;4909218;29;20024;-83
2023/11/12 12:14:35;;;;;;;4.70;2.35;;;;;;;;;;4893358;29;20025;-82
2023/11/12 12:17:20;;;;;;;5.90;2.10;;;;;;;;;;4909453;29;20031;-82
2023/11/12 12:20:06;;;;;;;3.67;2.03;;;;;;;;;;4911255;29;20490;-83
2023/11/12 12:22:52;;;;;;;3.60;2.10;;;;;;;;;;4910156;29;20054;-81
2023/11/12 12:25:50;;;;;;;5.25;2.45;;;;;;;;;;4910518;29;20475;-83
2023/11/12 12:28:35;;;;;;;4.45;2.17;;;;;;;;;;4911295;29;20032;-84
2023/11/12 12:31:26;;;;;;;4.13;1.80;;;;;;;;;;4911043;29;20078;-82
2023/11/12 12:34:12;;;;;;;3.65;2.00;;;;;;;;;;4911390;29;20039;-84
2023/11/12 12:37:08;;;;;;;3.00;1.92;;;;;;;;;;4910494;29;20604;-83
2023/11/12 12:40:02;;;;;;;2.53;1.70;;;;;;;;;;4898406;29;20035;-84
2023/11/12 12:42:53;;;;;;;3.00;2.13;;;;;;;;;;4910895;29;20051;-81
2023/11/12 12:45:38;;;;;;;3.10;1.88;;;;;;;;;;4909813;29;20040;-80
2023/11/12 12:48:23;;;;;;;3.80;1.80;;;;;;;;;;4910676;29;20420;-81
2023/11/12 12:51:14;;;;;;;6.75;2.92;;;;;;;;;;4910480;29;20044;-81
2023/11/12 12:53:59;;;;;;;2.92;1.85;;;;;;;;;;4909576;29;20040;-81
2023/11/12 12:56:45;;;;;;;4.70;2.30;;;;;;;;;;4910064;29;20038;-81
2023/11/12 12:59:37;;;;;;;4.72;1.73;;;;;;;;;;4910304;29;20047;-80
2023/11/12 13:02:22;;;;;;;3.47;2.15;;;;;;;;;;4910589;29;20062;-80
2023/11/12 13:05:13;;;;;;;5.47;2.45;;;;;;;;;;4910315;29;20570;-80
2023/11/12 13:07:59;;;;;;;3.75;2.40;;;;;;;;;;4908424;29;20812;-81
2023/11/12 13:10:44;;;;;;;4.32;2.10;;;;;;;;;;4907286;29;20111;-80
2023/11/12 13:13:30;;;;;;;2.42;1.83;;;;;;;;;;4912317;29;20028;-81
2023/11/12 13:16:16;;;;;;;3.35;1.92;;;;;;;;;;4910507;29;20383;-80
2023/11/12 13:19:04;;;;;;;2.47;1.80;;;;;;;;;;4909806;29;20038;-81
2023/11/12 13:21:49;;;;;;;3.50;1.92;;;;;;;;;;4895582;29;20056;-81
2023/11/12 13:24:34;;;;;;;4.38;2.08;;;;;;;;;;4906831;29;20038;-81
2023/11/12 13:27:20;;;;;;;3.67;2.25;;;;;;;;;;4910363;29;20032;-81
2023/11/12 13:30:06;;;;;;;4.32;2.38;;;;;;;;;;4909667;29;20036;-81
2023/11/12 13:32:51;;;;;;;2.92;1.50;;;;;;;;;;4910278;29;20028;-80
2023/11/12 13:35:38;;;;;;;4.18;1.70;;;;;;;;;;4909415;29;20497;-81
2023/11/12 13:38:23;;;;;;;3.08;1.60;;;;;;;;;;4906206;29;20088;-81
2023/11/12 13:41:10;;;;;;;2.47;1.80;;;;;;;;;;4910355;29;20043;-83
2023/11/12 13:43:57;;;;;;;4.35;2.00;;;;;;;;;;4909783;29;20039;-78
2023/11/12 13:46:42;;;;;;;3.53;1.90;;;;;;;;;;4909559;29;20035;-82
2023/11/12 13:49:28;;;;;;;3.50;1.80;;;;;;;;;;4909394;29;20048;-81
2023/11/12 13:52:17;;;;;;;4.03;1.90;;;;;;;;;;4909209;29;20020;-81
2023/11/12 13:55:02;;;;;;;2.35;1.58;;;;;;;;;;4909474;29;20534;-81
2023/11/12 13:57:48;;;;;;;4.82;1.80;;;;;;;;;;4909896;29;20514;-78
2023/11/12 14:00:33;;;;;;;3.85;1.88;;;;;;;;;;4893141;29;20029;-82
2023/11/12 14:03:18;;;;;;;2.33;1.60;;;;;;;;;;4906512;29;20620;-82
2023/11/12 14:06:04;;;;;;;1.95;1.40;;;;;;;;;;4895139;29;20032;-80
2023/11/12 14:08:49;;;;;;;2.63;1.73;;;;;;;;;;4908233;29;20032;-80
2023/11/12 14:11:36;;;;;;;2.78;1.45;;;;;;;;;;4910806;29;20478;-81
2023/11/12 14:14:21;;;;;;;2.13;1.73;;;;;;;;;;4896898;29;20062;-81
2023/11/12 14:17:07;;;;;;;2.30;1.65;;;;;;;;;;4889252;29;20424;-81
2023/11/12 14:19:55;;;;;;;3.08;2.22;;;;;;;;;;4908886;29;20028;-81
2023/11/12 14:22:40;;;;;;;2.47;1.73;;;;;;;;;;4909113;29;20074;-81
2023/11/12 14:25:25;;;;;;;2.17;1.38;;;;;;;;;;4908581;29;20217;-82
2023/11/12 14:28:10;;;;;;;4.18;1.90;;;;;;;;;;4908321;29;20020;-82
2023/11/12 14:30:57;;;;;;;3.28;1.98;;;;;;;;;;4903050;29;20168;-82
2023/11/12 14:33:42;;;;;;;3.78;1.65;;;;;;;;;;4898806;29;20353;-82
2023/11/12 14:36:28;;;;;;;1.85;1.50;;;;;;;;;;4908935;29;20025;-82
2023/11/12 14:39:18;;;;;;;4.18;1.60;;;;;;;;;;4906462;29;20035;-83
2023/11/12 14:42:04;;;;;;;1.98;1.30;;;;;;;;;;4909256;29;20039;-82
2023/11/12 14:44:51;;;;;;;4.38;1.58;;;;;;;;;;4908488;29;20025;-82
2023/11/12 14:47:37;;;;;;;3.30;1.90;;;;;;;;;;4907181;29;20032;-81
2023/11/12 14:50:23;;;;;;;2.70;1.60;;;;;;;;;;4908091;29;20052;-81
2023/11/12 14:53:08;;;;;;;5.38;1.75;;;;;;;;;;4908752;29;20036;-80
2023/11/12 14:55:53;;;;;;;3.80;1.60;;;;;;;;;;4907598;29;20062;-82
2023/11/12 14:58:40;;;;;;;4.45;1.75;;;;;;;;;;4912071;29;20091;-80
2023/11/12 15:01:26;;;;;;;3.45;1.75;;;;;;;;;;4910569;29;20119;-80
2023/11/12 15:04:13;;;;;;;6.13;2.35;;;;;;;;;;4913222;29;20032;-85
2023/11/12 15:06:58;;;;;;;6.60;2.53;;;;;;;;;;4896895;29;20126;-83
2023/11/12 15:09:44;;;;;;;2.50;1.55;;;;;;;;;;4907607;29;20042;-83
2023/11/12 15:12:29;;;;;;;3.50;1.60;;;;;;;;;;4907153;29;20035;-82
2023/11/12 15:15:14;;;;;;;3.80;1.58;;;;;;;;;;4908780;29;20028;-83
2023/11/12 15:18:00;;;;;;;2.75;1.52;;;;;;;;;;4908933;29;20035;-83
2023/11/12 15:20:45;;;;;;;4.72;2.10;;;;;;;;;;4908443;29;20038;-81
2023/11/12 15:23:33;;;;;;;5.70;3.03;;;;;;;;;;4906004;29;20058;-83
2023/11/12 15:26:18;;;;;;;3.95;1.63;;;;;;;;;;4907531;29;20475;-81
2023/11/12 15:29:04;;;;;;;5.25;1.90;;;;;;;;;;4907919;29;20036;-81
2023/11/12 15:31:50;;;;;;;3.22;1.80;;;;;;;;;;4909307;29;20032;-84
2023/11/12 15:34:37;;;;;;;2.67;1.50;;;;;;;;;;4908449;29;20387;-81
2023/11/12 15:37:22;;;;;;;1.30;1.13;;;;;;;;;;4908209;29;20051;-83
2023/11/12 15:40:17;;;;;;;1.42;1.13;;;;;;;;;;4913146;29;20073;-82
2023/11/12 15:43:02;;;;;;;2.85;1.27;;;;;;;;;;4912943;29;20058;-82
2023/11/12 15:45:48;;;;;;;4.22;1.55;;;;;;;;;;4909148;29;20028;-83
2023/11/12 15:48:33;;;;;;;3.72;1.80;;;;;;;;;;4908844;29;20039;-82
2023/11/12 15:51:19;;;;;;;2.10;1.52;;;;;;;;;;4873913;29;20072;-82
2023/11/12 15:54:04;;;;;;;2.35;1.38;;;;;;;;;;4876822;29;20531;-84
2023/11/12 15:56:50;;;;;;;4.45;1.90;;;;;;;;;;4864392;29;20100;-83
2023/11/12 15:59:35;;;;;;;2.92;1.30;;;;;;;;;;4879643;29;20139;-84
2023/11/12 16:02:20;;;;;;;2.47;1.63;;;;;;;;;;4878492;29;20560;-83
2023/11/12 16:05:06;;;;;;;2.75;1.40;;;;;;;;;;4888573;29;20173;-82
2023/11/12 16:07:51;;;;;;;3.75;1.42;;;;;;;;;;4881202;29;20403;-81
2023/11/12 16:10:36;;;;;;;5.45;1.50;;;;;;;;;;4895432;29;20036;-83
2023/11/12 16:13:21;;;;;;;3.05;1.73;;;;;;;;;;4887363;29;20360;-81
2023/11/12 16:16:07;;;;;;;3.60;2.08;;;;;;;;;;4882897;29;20036;-82
2023/11/12 16:18:52;;;;;;;2.22;1.60;;;;;;;;;;4877992;29;20040;-83
2023/11/12 16:21:37;;;;;;;4.07;1.15;;;;;;;;;;4863129;29;20176;-82
2023/11/12 16:24:22;;;;;;;1.95;1.25;;;;;;;;;;4864379;29;20108;-84
2023/11/12 16:27:08;;;;;;;3.60;1.65;;;;;;;;;;4878714;29;20044;-84
2023/11/12 16:29:53;;;;;;;2.60;1.20;;;;;;;;;;4879755;29;20088;-84
2023/11/12 16:32:38;;;;;;;1.50;1.20;;;;;;;;;;4864135;29;20064;-84
2023/11/12 16:35:23;;;;;;;1.33;1.20;;;;;;;;;;4878272;29;20440;-86
2023/11/12 16:38:10;;;;;;;2.63;1.27;;;;;;;;;;4879435;29;20032;-85